Time;durP1;ratioP1;P1;durP2;ratioP2;P2;SDS_P1;SDS_P2;PMS_P1;PMS_P2;Temp;Humidity;BMP_temperature;BMP_pressure;BME280_temperature;BME280_humidity;BME280_pressure;Samples;Min_cycle;Max_cycle;Signal;HPM_P1;HPM_P2
2021/10/26 04:30:53;;;;;;;7.10;6.27;;;7.90;99.90;;;;;;5973795;23;20397;-74
2021/10/26 04:33:19;;;;;;;9.93;8.00;;;7.90;99.90;;;;;;4945483;28;20440;-73
2021/10/26 04:35:46;;;;;;;13.47;9.67;;;8.00;99.90;;;;;;4953026;29;20181;-75
2021/10/26 04:38:11;;;;;;;12.13;8.27;;;8.00;99.90;;;;;;4954946;29;20969;-75
2021/10/26 04:40:38;;;;;;;15.70;8.67;;;8.00;99.90;;;;;;4953002;28;20437;-75
2021/10/26 04:43:04;;;;;;;10.83;7.83;;;8.00;99.90;;;;;;4954685;28;20627;-74
2021/10/26 04:45:31;;;;;;;11.10;7.97;;;8.00;99.90;;;;;;4953027;28;20900;-75
2021/10/26 04:47:57;;;;;;;9.47;7.67;;;7.90;99.90;;;;;;4954709;28;20411;-75
2021/10/26 04:50:23;;;;;;;13.30;8.60;;;7.90;99.90;;;;;;4951170;28;20438;-75
2021/10/26 04:52:49;;;;;;;12.03;7.43;;;7.90;99.90;;;;;;4954397;28;20429;-75
2021/10/26 04:55:15;;;;;;;9.47;7.93;;;7.90;99.90;;;;;;4952570;28;20193;-75
2021/10/26 04:57:41;;;;;;;10.40;8.23;;;7.90;99.90;;;;;;4954543;28;20447;-75
2021/10/26 05:00:09;;;;;;;12.80;7.50;;;7.90;99.90;;;;;;4952541;28;20516;-75
2021/10/26 05:02:35;;;;;;;11.90;8.53;;;7.90;99.90;;;;;;4951705;28;20507;-75
2021/10/26 05:05:02;;;;;;;13.03;9.90;;;7.90;99.90;;;;;;4952741;28;20449;-75
2021/10/26 05:07:28;;;;;;;8.77;7.20;;;7.90;99.90;;;;;;4954505;28;20486;-74
2021/10/26 05:09:54;;;;;;;9.40;8.47;;;7.90;99.90;;;;;;4952303;28;20930;-75
2021/10/26 05:12:19;;;;;;;11.80;8.43;;;8.00;99.90;;;;;;4952106;28;20536;-75
2021/10/26 05:14:45;;;;;;;13.43;9.10;;;7.90;99.90;;;;;;4952026;28;20232;-75
2021/10/26 05:17:13;;;;;;;11.50;8.60;;;8.00;99.90;;;;;;4951631;28;20251;-74
2021/10/26 05:19:39;;;;;;;9.90;7.93;;;8.00;99.90;;;;;;4954344;28;20689;-75
2021/10/26 05:22:04;;;;;;;10.60;7.67;;;8.00;99.90;;;;;;4950030;28;20516;-75
2021/10/26 05:24:33;;;;;;;10.53;8.83;;;8.00;99.90;;;;;;4954061;28;20422;-75
2021/10/26 05:26:59;;;;;;;11.63;7.93;;;8.00;99.90;;;;;;4952005;28;20338;-75
2021/10/26 05:29:25;;;;;;;11.00;8.17;;;8.00;99.90;;;;;;4953065;28;20508;-75
2021/10/26 05:31:50;;;;;;;9.43;8.00;;;8.00;99.90;;;;;;4945917;28;20574;-75
2021/10/26 05:34:16;;;;;;;11.30;7.60;;;8.00;99.90;;;;;;4951516;29;20663;-74
2021/10/26 05:36:41;;;;;;;9.73;7.83;;;8.00;99.90;;;;;;4951590;28;20216;-72
2021/10/26 05:39:09;;;;;;;9.43;8.40;;;8.00;99.90;;;;;;4953793;28;20726;-72
2021/10/26 05:41:35;;;;;;;12.43;8.80;;;8.00;99.90;;;;;;4951684;28;20254;-73
2021/10/26 05:44:03;;;;;;;10.10;8.47;;;8.00;99.90;;;;;;4952270;28;20450;-74
2021/10/26 05:46:29;;;;;;;12.67;9.30;;;8.00;99.90;;;;;;4950804;28;20441;-73
2021/10/26 05:48:55;;;;;;;12.50;11.17;;;8.00;99.90;;;;;;4952283;29;20426;-74
2021/10/26 05:51:20;;;;;;;17.13;10.03;;;8.00;99.90;;;;;;4952547;28;20649;-73
2021/10/26 05:53:46;;;;;;;14.60;10.63;;;8.00;99.90;;;;;;4949148;28;20208;-73
2021/10/26 05:56:11;;;;;;;11.80;9.67;;;8.00;99.90;;;;;;4953643;28;20189;-73
2021/10/26 05:58:37;;;;;;;14.20;10.20;;;8.00;99.90;;;;;;4951229;28;20222;-72
2021/10/26 06:01:03;;;;;;;20.53;10.03;;;7.90;99.90;;;;;;4951342;28;20675;-72
2021/10/26 06:03:28;;;;;;;13.57;11.20;;;7.90;99.90;;;;;;4949213;28;20271;-73
2021/10/26 06:05:54;;;;;;;13.70;9.97;;;7.90;99.90;;;;;;4952882;29;20199;-73
2021/10/26 06:08:19;;;;;;;19.87;10.93;;;7.90;99.90;;;;;;4951180;28;20191;-73
2021/10/26 06:10:54;;;;;;;13.90;10.10;;;7.80;99.90;;;;;;4953549;28;20749;-73
2021/10/26 06:13:25;;;;;;;11.00;9.63;;;7.80;99.90;;;;;;4951390;28;20645;-73
2021/10/26 06:15:51;;;;;;;13.20;10.40;;;7.80;99.90;;;;;;4947247;28;20967;-73
2021/10/26 06:18:17;;;;;;;14.73;9.30;;;7.80;99.90;;;;;;4951282;28;20481;-73
2021/10/26 06:20:43;;;;;;;16.67;10.13;;;7.80;99.90;;;;;;4953399;28;20282;-73
2021/10/26 06:23:08;;;;;;;12.60;9.50;;;7.80;99.90;;;;;;4952931;28;20529;-73
2021/10/26 06:25:34;;;;;;;17.63;11.00;;;7.80;99.90;;;;;;4950007;29;20985;-73
2021/10/26 06:27:59;;;;;;;15.50;10.57;;;7.80;99.90;;;;;;4953550;28;20197;-73
2021/10/26 06:30:25;;;;;;;16.20;9.87;;;7.90;99.90;;;;;;4950634;28;20252;-73
2021/10/26 06:32:51;;;;;;;14.83;10.77;;;8.00;99.90;;;;;;4953070;28;20227;-71
2021/10/26 06:35:16;;;;;;;15.33;10.33;;;8.00;99.90;;;;;;4953009;28;20195;-72
2021/10/26 06:37:44;;;;;;;13.07;9.97;;;8.10;99.90;;;;;;4956979;28;20208;-72
2021/10/26 06:40:12;;;;;;;12.87;10.43;;;8.20;99.90;;;;;;4954841;28;20198;-72
2021/10/26 06:42:39;;;;;;;12.73;10.23;;;8.20;99.90;;;;;;4956617;28;20457;-72
2021/10/26 06:45:05;;;;;;;16.07;11.30;;;8.30;99.90;;;;;;4950672;28;20972;-72
2021/10/26 06:47:31;;;;;;;12.60;9.63;;;8.30;99.90;;;;;;4954355;29;20452;-73
2021/10/26 06:49:56;;;;;;;12.90;10.60;;;8.30;99.90;;;;;;4954927;28;20905;-73
2021/10/26 06:52:22;;;;;;;16.40;10.80;;;8.40;99.90;;;;;;4956633;28;20215;-72
2021/10/26 06:54:47;;;;;;;16.07;11.53;;;8.40;99.90;;;;;;4954717;28;20265;-72
2021/10/26 06:57:14;;;;;;;17.47;12.00;;;8.40;99.90;;;;;;4954661;28;20211;-72
2021/10/26 06:59:40;;;;;;;19.03;12.00;;;8.50;99.90;;;;;;4954442;28;20175;-72
2021/10/26 07:02:05;;;;;;;23.10;13.90;;;8.60;99.90;;;;;;4953178;28;20469;-70
2021/10/26 07:04:34;;;;;;;14.43;11.00;;;8.70;99.90;;;;;;4956408;28;20201;-73
2021/10/26 07:06:59;;;;;;;15.20;10.90;;;8.80;99.90;;;;;;4954419;28;20571;-72
2021/10/26 07:09:25;;;;;;;19.33;11.10;;;8.90;99.90;;;;;;4955392;29;20411;-72
2021/10/26 07:11:50;;;;;;;12.97;11.20;;;9.00;99.90;;;;;;4952385;28;20204;-72
2021/10/26 07:14:16;;;;;;;17.57;12.27;;;9.20;99.90;;;;;;4955019;28;20573;-72
2021/10/26 07:16:42;;;;;;;12.17;10.73;;;9.40;99.90;;;;;;4952297;28;20668;-71
2021/10/26 07:19:07;;;;;;;13.30;11.37;;;9.60;99.90;;;;;;4956379;28;20805;-72
2021/10/26 07:21:33;;;;;;;21.40;10.27;;;10.10;99.90;;;;;;4954240;28;20655;-74
2021/10/26 07:24:00;;;;;;;15.77;10.00;;;11.20;99.90;;;;;;4952689;29;20219;-72
2021/10/26 07:26:25;;;;;;;15.10;9.80;;;12.40;99.90;;;;;;4954153;28;20303;-72
2021/10/26 07:28:54;;;;;;;10.37;8.63;;;13.30;99.90;;;;;;4955996;29;20532;-72
2021/10/26 07:31:23;;;;;;;15.03;9.40;;;13.60;99.90;;;;;;4952367;28;20299;-73
2021/10/26 07:33:49;;;;;;;13.03;9.13;;;13.60;99.90;;;;;;4950524;29;20526;-74
2021/10/26 07:36:15;;;;;;;11.33;8.10;;;13.40;99.90;;;;;;4956059;28;20845;-72
2021/10/26 07:38:41;;;;;;;11.53;7.90;;;13.20;99.90;;;;;;4953527;28;20242;-73
2021/10/26 07:41:08;;;;;;;12.00;8.87;;;13.40;99.90;;;;;;4955323;28;20196;-72
2021/10/26 07:43:35;;;;;;;14.83;8.30;;;13.90;99.90;;;;;;4951552;28;20432;-72
2021/10/26 07:46:03;;;;;;;16.13;8.73;;;14.30;99.90;;;;;;4953757;28;20432;-73
2021/10/26 07:48:29;;;;;;;8.87;7.97;;;14.20;99.90;;;;;;4953576;28;20480;-73
2021/10/26 07:50:58;;;;;;;10.83;8.07;;;13.80;99.90;;;;;;4955621;28;21011;-73
2021/10/26 07:53:25;;;;;;;12.13;8.77;;;13.70;99.90;;;;;;4952497;28;20646;-73
2021/10/26 07:55:52;;;;;;;17.33;10.30;;;13.50;99.90;;;;;;4955038;29;20779;-73
2021/10/26 07:58:18;;;;;;;12.80;10.60;;;13.40;99.90;;;;;;4953499;28;20460;-73
2021/10/26 08:00:43;;;;;;;13.40;9.60;;;13.00;99.90;;;;;;4953189;28;20452;-72
2021/10/26 08:03:09;;;;;;;12.87;9.60;;;12.90;99.90;;;;;;4953418;28;20433;-72
2021/10/26 08:05:35;;;;;;;12.40;10.40;;;12.80;99.90;;;;;;4949162;28;20582;-72
2021/10/26 08:08:00;;;;;;;14.40;11.23;;;12.70;99.90;;;;;;4955386;28;20204;-72
2021/10/26 08:10:26;;;;;;;21.03;10.13;;;12.60;99.90;;;;;;4952203;28;20191;-72
2021/10/26 08:12:52;;;;;;;19.93;9.60;;;12.70;99.90;;;;;;4946960;29;20588;-72
2021/10/26 08:15:17;;;;;;;11.47;9.70;;;12.70;99.90;;;;;;4948525;29;20543;-72
2021/10/26 08:17:43;;;;;;;10.90;8.40;;;12.80;99.90;;;;;;4954195;28;20286;-73
2021/10/26 08:20:09;;;;;;;15.73;9.90;;;12.80;99.90;;;;;;4953909;29;20182;-72
2021/10/26 08:22:38;;;;;;;16.87;11.03;;;12.90;99.90;;;;;;4952644;29;20200;-72
2021/10/26 08:25:12;;;;;;;14.80;9.90;;;12.90;99.90;;;;;;4944838;29;20428;-73
2021/10/26 08:27:38;;;;;;;11.50;9.73;;;12.90;99.90;;;;;;4952585;29;20503;-73
2021/10/26 08:30:17;;;;;;;15.80;9.83;;;12.90;99.90;;;;;;4945550;29;20937;-73
2021/10/26 08:35:44;;;;;;;13.77;9.70;;;12.80;99.90;;;;;;4926093;29;20448;-73
2021/10/26 08:38:09;;;;;;;11.37;8.60;;;12.80;99.90;;;;;;4947063;29;20851;-71
2021/10/26 08:40:37;;;;;;;12.33;9.80;;;12.80;99.90;;;;;;4946777;28;20772;-72
2021/10/26 08:43:06;;;;;;;12.90;10.20;;;12.90;99.90;;;;;;4935455;29;20245;-72
2021/10/26 08:45:35;;;;;;;12.97;10.00;;;13.10;99.90;;;;;;4942005;29;21207;-72
2021/10/26 08:48:04;;;;;;;12.53;9.37;;;13.30;99.90;;;;;;4953103;28;20440;-72
2021/10/26 08:50:35;;;;;;;17.10;9.53;;;13.50;99.90;;;;;;4947527;29;20421;-73
2021/10/26 08:53:02;;;;;;;10.27;8.60;;;13.50;99.90;;;;;;4951086;28;20522;-72
2021/10/26 08:55:28;;;;;;;14.70;11.33;;;13.70;99.90;;;;;;4954319;28;20440;-73
2021/10/26 08:57:56;;;;;;;16.27;9.60;;;13.80;99.90;;;;;;4950670;28;20499;-73
2021/10/26 09:00:23;;;;;;;12.00;10.10;;;13.90;99.90;;;;;;4952229;29;20444;-72
2021/10/26 09:02:51;;;;;;;13.80;9.37;;;14.00;99.90;;;;;;4951693;28;20487;-73
2021/10/26 09:05:23;;;;;;;15.37;8.70;;;14.10;99.90;;;;;;4948721;29;20476;-72
2021/10/26 09:08:09;;;;;;;12.30;8.77;;;14.30;99.90;;;;;;4949415;29;20441;-72
2021/10/26 09:10:36;;;;;;;14.10;8.37;;;14.60;99.90;;;;;;4950987;29;20447;-74
2021/10/26 09:18:50;;;;;;;7.90;6.80;;;14.80;99.90;;;;;;5089358;28;20553;-72
2021/10/26 09:21:30;;;;;;;6.57;5.93;;;14.80;99.90;;;;;;5089400;28;20530;-72
2021/10/26 09:23:57;;;;;;;7.50;5.50;;;15.00;99.90;;;;;;5085886;28;20524;-73
2021/10/26 09:26:43;;;;;;;6.57;5.90;;;15.10;99.90;;;;;;5088671;28;20422;-72
2021/10/26 09:29:08;;;;;;;7.70;6.80;;;15.20;99.90;;;;;;5087815;28;20446;-73
2021/10/26 09:31:38;;;;;;;6.87;6.10;;;15.20;99.90;;;;;;5076695;28;20994;-72
2021/10/26 09:34:07;;;;;;;9.57;6.00;;;15.10;99.90;;;;;;5085749;28;20225;-72
2021/10/26 09:36:35;;;;;;;10.53;5.03;;;14.90;99.90;;;;;;5086228;28;20437;-71
2021/10/26 09:39:04;;;;;;;9.43;5.97;;;14.90;99.90;;;;;;5088514;28;20422;-72
2021/10/26 09:41:36;;;;;;;9.17;5.30;;;14.80;99.90;;;;;;5084189;28;20457;-72
2021/10/26 09:44:10;;;;;;;6.83;5.63;;;14.90;99.90;;;;;;5088005;28;20414;-72
2021/10/26 09:46:36;;;;;;;7.90;5.50;;;14.90;99.90;;;;;;5083844;28;20434;-72
2021/10/26 09:49:01;;;;;;;7.40;5.83;;;14.90;99.90;;;;;;5088348;28;20777;-71
2021/10/26 09:51:29;;;;;;;10.23;5.73;;;14.70;99.90;;;;;;5086355;28;20747;-71
2021/10/26 09:53:58;;;;;;;10.03;5.47;;;14.70;99.90;;;;;;5085346;28;20184;-71
2021/10/26 09:56:24;;;;;;;9.80;4.63;;;14.70;99.90;;;;;;5086078;28;20410;-70
2021/10/26 09:59:13;;;;;;;6.60;4.30;;;14.70;99.90;;;;;;5087944;28;20416;-70
2021/10/26 10:01:52;;;;;;;7.43;4.00;;;14.80;99.90;;;;;;5084636;28;20618;-70
2021/10/26 10:04:28;;;;;;;5.83;3.90;;;14.90;99.90;;;;;;5079307;28;20429;-70
2021/10/26 10:06:54;;;;;;;5.07;3.43;;;15.10;99.90;;;;;;5087612;28;20409;-71
2021/10/26 10:09:23;;;;;;;4.97;2.53;;;15.20;99.90;;;;;;5086130;28;20512;-70
2021/10/26 10:11:57;;;;;;;5.53;3.20;;;15.50;99.90;;;;;;5087611;28;20576;-70
2021/10/26 10:14:23;;;;;;;8.13;3.20;;;15.90;99.90;;;;;;5079187;28;20445;-71
2021/10/26 10:16:52;;;;;;;7.33;3.63;;;16.00;99.90;;;;;;5084492;28;20426;-71
2021/10/26 10:19:18;;;;;;;8.03;2.97;;;16.20;99.90;;;;;;5085478;28;20180;-70
2021/10/26 10:21:45;;;;;;;3.93;2.87;;;16.30;99.90;;;;;;5087584;28;20426;-71
2021/10/26 10:24:13;;;;;;;4.67;3.10;;;16.40;99.90;;;;;;5073525;28;20876;-72
2021/10/26 10:26:39;;;;;;;8.03;2.80;;;16.60;99.90;;;;;;5072825;28;20421;-70
2021/10/26 10:29:06;;;;;;;3.00;2.80;;;16.60;99.90;;;;;;5070439;28;20805;-71
2021/10/26 10:31:32;;;;;;;2.90;2.27;;;16.70;99.90;;;;;;5083360;28;20479;-71
2021/10/26 10:33:59;;;;;;;2.37;2.20;;;16.60;99.90;;;;;;5069435;28;20449;-70
2021/10/26 10:36:26;;;;;;;3.50;2.20;;;16.10;99.90;;;;;;5073161;28;20758;-70
2021/10/26 10:38:54;;;;;;;4.30;2.07;;;16.00;99.90;;;;;;5073560;28;20955;-71
2021/10/26 10:41:45;;;;;;;4.00;2.13;;;15.80;99.90;;;;;;5072094;28;20893;-70
2021/10/26 10:44:20;;;;;;;7.50;2.90;;;15.90;99.90;;;;;;5073407;28;20407;-70
2021/10/26 10:46:47;;;;;;;3.63;2.37;;;16.10;99.90;;;;;;5071440;28;20509;-70
2021/10/26 10:49:19;;;;;;;4.50;2.63;;;16.00;99.90;;;;;;5073582;28;20411;-70
2021/10/26 10:51:58;;;;;;;2.93;2.20;;;16.00;99.90;;;;;;5072376;28;20466;-72
2021/10/26 10:54:41;;;;;;;6.63;2.50;;;16.00;99.90;;;;;;5072048;28;20419;-71
2021/10/26 10:57:22;;;;;;;3.23;2.67;;;16.10;99.90;;;;;;5069515;28;20804;-70
2021/10/26 10:59:49;;;;;;;5.13;2.70;;;16.10;99.90;;;;;;5053295;28;20795;-70
2021/10/26 11:02:23;;;;;;;5.20;2.83;;;16.10;99.90;;;;;;5069056;28;20537;-71
2021/10/26 11:04:50;;;;;;;8.63;3.10;;;16.20;99.90;;;;;;5073091;28;20441;-73
2021/10/26 11:07:41;;;;;;;6.77;2.67;;;16.60;99.90;;;;;;5071351;28;20444;-71
2021/10/26 11:10:08;;;;;;;5.63;2.43;;;16.90;99.90;;;;;;5071199;28;20977;-71
2021/10/26 11:12:36;;;;;;;4.37;2.83;;;17.00;99.90;;;;;;5070508;28;20580;-73
2021/10/26 11:15:16;;;;;;;4.87;3.17;;;17.10;99.90;;;;;;5071082;28;20399;-74
2021/10/26 11:17:43;;;;;;;5.90;2.73;;;16.80;99.90;;;;;;5055636;28;20509;-72
2021/10/26 11:20:28;;;;;;;4.50;2.73;;;16.70;99.90;;;;;;5071222;28;20923;-73
2021/10/26 11:22:55;;;;;;;4.73;3.37;;;16.50;99.90;;;;;;5068928;28;20429;-73
2021/10/26 11:25:34;;;;;;;5.47;2.60;;;16.50;99.90;;;;;;5072390;28;20422;-72
2021/10/26 11:28:02;;;;;;;3.83;2.90;;;16.50;99.90;;;;;;5072851;28;20420;-72
2021/10/26 11:30:28;;;;;;;4.40;2.50;;;16.60;99.90;;;;;;5069967;28;20979;-72
2021/10/26 11:33:23;;;;;;;3.07;2.00;;;16.70;99.90;;;;;;5063233;28;20498;-72
2021/10/26 11:35:51;;;;;;;4.07;1.70;;;16.60;99.90;;;;;;5080574;28;20180;-72
2021/10/26 11:38:23;;;;;;;4.63;2.17;;;16.60;99.90;;;;;;5071566;28;20925;-73
2021/10/26 11:41:04;;;;;;;5.30;1.90;;;16.60;99.90;;;;;;5068289;28;20488;-72
2021/10/26 11:43:39;;;;;;;3.97;2.33;;;16.60;99.90;;;;;;5052444;28;20787;-71
2021/10/26 11:46:05;;;;;;;3.20;1.80;;;16.50;99.90;;;;;;5060644;28;20966;-72
2021/10/26 11:48:46;;;;;;;3.97;2.23;;;16.40;99.90;;;;;;5072626;28;20431;-71
2021/10/26 11:51:26;;;;;;;2.60;2.23;;;16.30;99.90;;;;;;5070491;28;20204;-72
2021/10/26 11:54:19;;;;;;;4.20;2.47;;;16.10;99.90;;;;;;5069632;28;20435;-72
2021/10/26 11:56:53;;;;;;;4.10;2.47;;;16.00;99.90;;;;;;5064101;28;20871;-72
2021/10/26 11:59:22;;;;;;;6.30;2.77;;;15.90;99.90;;;;;;5072267;28;20925;-72
2021/10/26 12:01:48;;;;;;;8.50;3.30;;;15.70;99.90;;;;;;5067629;28;20462;-71
2021/10/26 12:04:21;;;;;;;5.07;2.77;;;15.60;99.90;;;;;;5071757;28;20421;-71
2021/10/26 12:06:49;;;;;;;2.10;2.00;;;15.60;99.90;;;;;;5071859;28;20419;-69
2021/10/26 12:09:16;;;;;;;4.23;2.10;;;15.50;99.90;;;;;;5069974;28;20435;-71
2021/10/26 12:11:47;;;;;;;4.87;2.63;;;15.40;99.90;;;;;;5071713;28;20468;-71
2021/10/26 12:14:15;;;;;;;9.20;3.50;;;15.40;99.90;;;;;;5067479;28;20431;-73
2021/10/26 12:17:06;;;;;;;5.53;3.80;;;15.40;99.90;;;;;;5066342;28;20418;-72
2021/10/26 12:19:33;;;;;;;4.23;2.63;;;15.30;99.90;;;;;;5070118;28;20431;-72
2021/10/26 12:21:59;;;;;;;4.30;3.40;;;15.40;99.90;;;;;;5071440;28;20445;-71
2021/10/26 12:24:30;;;;;;;9.10;2.90;;;15.50;99.90;;;;;;5069545;28;20438;-73
2021/10/26 12:27:05;;;;;;;3.43;3.10;;;15.50;99.90;;;;;;5069703;28;20432;-72
2021/10/26 12:29:42;;;;;;;3.47;3.17;;;15.70;99.90;;;;;;5068854;28;20444;-72
2021/10/26 12:32:09;;;;;;;3.53;3.23;;;15.90;99.90;;;;;;5067259;28;20471;-72
2021/10/26 12:34:43;;;;;;;4.63;3.07;;;15.90;99.90;;;;;;5067225;28;20459;-72
2021/10/26 12:37:29;;;;;;;7.03;3.40;;;15.90;99.90;;;;;;5070593;28;20488;-72
2021/10/26 12:39:55;;;;;;;8.10;3.40;;;15.80;99.90;;;;;;5071379;28;20468;-73
2021/10/26 12:42:30;;;;;;;6.60;3.60;;;15.80;99.90;;;;;;5069513;28;20450;-72
2021/10/26 12:44:55;;;;;;;3.17;2.93;;;15.70;99.90;;;;;;5071304;28;20409;-72
2021/10/26 12:47:21;;;;;;;3.30;2.80;;;15.60;99.90;;;;;;5066958;28;20434;-72
2021/10/26 12:49:46;;;;;;;5.70;3.23;;;15.50;99.90;;;;;;5071382;28;20542;-73
2021/10/26 12:52:13;;;;;;;6.00;2.97;;;15.50;99.90;;;;;;5069470;28;20226;-72
2021/10/26 12:54:39;;;;;;;4.40;2.03;;;15.50;99.90;;;;;;5071152;28;20172;-71
2021/10/26 12:57:05;;;;;;;7.77;3.60;;;15.40;99.90;;;;;;5069559;28;20435;-72
2021/10/26 12:59:31;;;;;;;3.67;2.10;;;15.40;99.90;;;;;;5069296;28;20180;-71
2021/10/26 13:02:02;;;;;;;3.20;2.27;;;15.40;99.90;;;;;;5066838;28;20232;-71
2021/10/26 13:04:28;;;;;;;3.27;1.87;;;15.30;99.90;;;;;;5066496;28;20412;-72
2021/10/26 13:07:00;;;;;;;3.33;2.40;;;15.40;99.90;;;;;;5066863;28;20794;-72
2021/10/26 13:09:42;;;;;;;5.13;2.30;;;15.40;99.90;;;;;;5069150;28;20185;-71
2021/10/26 13:12:27;;;;;;;2.87;1.97;;;15.70;99.90;;;;;;5069833;28;20523;-72
2021/10/26 13:15:08;;;;;;;2.10;1.80;;;15.80;99.90;;;;;;5070448;28;20419;-71
2021/10/26 13:17:39;;;;;;;6.50;1.97;;;15.80;99.90;;;;;;5070670;28;20406;-71
2021/10/26 13:20:33;;;;;;;3.33;1.90;;;15.90;99.90;;;;;;5069042;28;20955;-72
2021/10/26 13:23:24;;;;;;;4.03;2.40;;;15.90;99.90;;;;;;5071049;28;20414;-71
2021/10/26 13:25:57;;;;;;;6.80;1.50;;;15.80;99.90;;;;;;5069431;28;20445;-72
2021/10/26 13:28:32;;;;;;;2.17;1.67;;;15.80;99.90;;;;;;5071216;28;20789;-73
2021/10/26 13:31:09;;;;;;;2.17;1.50;;;15.70;99.90;;;;;;5063186;28;20466;-71
2021/10/26 13:33:44;;;;;;;2.10;1.40;;;15.60;99.90;;;;;;5059634;28;20806;-73
2021/10/26 13:36:11;;;;;;;3.57;1.37;;;15.40;99.90;;;;;;5068530;28;20427;-69
2021/10/26 13:38:38;;;;;;;3.27;1.30;;;15.40;99.90;;;;;;5070776;28;20418;-73
2021/10/26 13:41:05;;;;;;;4.47;1.70;;;15.20;99.90;;;;;;5067113;28;20454;-71
2021/10/26 13:43:32;;;;;;;2.90;1.40;;;15.10;99.90;;;;;;5070655;28;20437;-73
2021/10/26 13:46:00;;;;;;;3.63;1.40;;;15.10;99.90;;;;;;5068747;28;21110;-72
2021/10/26 13:48:25;;;;;;;3.13;1.43;;;15.00;99.90;;;;;;5071071;28;20415;-71
2021/10/26 13:50:51;;;;;;;2.20;1.20;;;15.00;99.90;;;;;;5068587;28;20837;-71
2021/10/26 13:53:17;;;;;;;2.00;1.50;;;14.90;99.90;;;;;;5068479;28;20246;-72
2021/10/26 13:55:45;;;;;;;6.50;2.20;;;14.90;99.90;;;;;;5070794;28;20177;-71
2021/10/26 13:58:12;;;;;;;1.90;1.30;;;14.90;99.90;;;;;;5070025;28;20457;-71
2021/10/26 14:00:42;;;;;;;1.63;0.90;;;14.90;99.90;;;;;;5072329;28;20444;-71
2021/10/26 14:03:08;;;;;;;1.93;1.17;;;15.00;99.90;;;;;;5084858;28;21007;-71
2021/10/26 14:05:38;;;;;;;2.57;1.67;;;15.10;99.90;;;;;;5094597;28;20466;-72
2021/10/26 14:08:10;;;;;;;3.57;1.50;;;15.20;99.90;;;;;;5079697;28;20443;-72
2021/10/26 14:10:37;;;;;;;1.97;1.57;;;15.20;99.90;;;;;;5074504;28;20461;-72
2021/10/26 14:13:05;;;;;;;1.33;1.23;;;15.20;99.90;;;;;;5071438;28;20474;-72
2021/10/26 14:15:31;;;;;;;3.13;1.60;;;15.30;99.90;;;;;;5069450;28;20443;-72
2021/10/26 14:17:58;;;;;;;2.70;1.50;;;15.40;99.90;;;;;;5071891;28;20430;-73
2021/10/26 14:20:27;;;;;;;3.80;1.37;;;15.40;99.90;;;;;;5074386;28;20205;-72
2021/10/26 14:22:53;;;;;;;5.27;1.47;;;15.40;99.90;;;;;;5072240;28;20939;-73
2021/10/26 14:25:21;;;;;;;2.17;1.80;;;15.30;99.90;;;;;;5086047;28;20438;-72
2021/10/26 14:27:49;;;;;;;1.67;1.40;;;15.20;99.90;;;;;;5073883;28;20523;-71
2021/10/26 14:30:16;;;;;;;3.70;1.87;;;15.10;99.90;;;;;;5070871;28;20493;-73
2021/10/26 14:32:50;;;;;;;3.13;1.60;;;15.00;99.90;;;;;;5066589;28;20478;-72
2021/10/26 14:35:21;;;;;;;9.83;2.30;;;14.90;99.90;;;;;;5067430;28;20431;-73
2021/10/26 14:37:56;;;;;;;5.73;1.57;;;14.80;99.90;;;;;;5073892;28;20397;-71
2021/10/26 14:40:41;;;;;;;4.93;1.73;;;14.80;99.90;;;;;;5071252;28;20430;-72
2021/10/26 14:52:42;;;;;;;5.00;1.53;;;14.70;99.90;;;;;;5073727;28;20426;-72
2021/10/26 14:54:20;;;;;;;5.63;1.70;;;14.60;99.90;;;;;;5073578;28;20418;-72
2021/10/26 14:56:46;;;;;;;1.30;1.20;;;14.60;99.90;;;;;;5068459;28;20461;-72
2021/10/26 14:59:12;;;;;;;9.40;3.20;;;14.60;99.90;;;;;;5073583;28;20414;-71
2021/10/26 15:01:38;;;;;;;2.50;1.67;;;14.60;99.90;;;;;;5068012;28;20614;-72
2021/10/26 15:04:05;;;;;;;4.27;1.80;;;14.50;99.90;;;;;;5072224;28;20439;-71
2021/10/26 15:06:33;;;;;;;1.80;1.23;;;14.50;99.90;;;;;;5071454;28;20493;-72
2021/10/26 15:09:08;;;;;;;2.87;1.57;;;14.40;99.90;;;;;;5071511;28;20495;-71
2021/10/26 15:11:35;;;;;;;2.53;1.50;;;14.30;99.90;;;;;;5070806;28;20478;-72
2021/10/26 15:14:06;;;;;;;2.00;1.50;;;14.20;99.90;;;;;;5073043;28;20445;-71
2021/10/26 15:16:32;;;;;;;5.50;1.80;;;14.20;99.90;;;;;;5069431;28;20842;-72
2021/10/26 15:19:02;;;;;;;3.10;1.70;;;14.10;99.90;;;;;;5072775;28;21205;-71
2021/10/26 15:21:34;;;;;;;4.30;2.07;;;14.00;99.90;;;;;;5072960;28;20431;-71
2021/10/26 15:34:43;;;;;;;4.20;2.40;;;13.50;99.90;;;;;;5063734;28;20438;-71
2021/10/26 15:37:09;;;;;;;4.40;2.60;;;13.40;99.90;;;;;;5072690;28;20945;-72
2021/10/26 15:39:35;;;;;;;2.80;1.50;;;13.40;99.90;;;;;;5070155;28;20191;-72
2021/10/26 15:42:01;;;;;;;4.57;1.70;;;13.30;99.90;;;;;;5072617;28;20241;-70
2021/10/26 15:44:27;;;;;;;2.77;1.73;;;13.20;99.90;;;;;;5066173;28;20517;-72
2021/10/26 15:46:52;;;;;;;2.80;1.87;;;13.10;99.90;;;;;;5066805;28;20185;-72
2021/10/26 15:49:18;;;;;;;2.10;2.00;;;13.10;99.90;;;;;;5068296;28;20181;-73
2021/10/26 15:51:44;;;;;;;2.30;1.83;;;13.10;99.90;;;;;;5070964;28;20228;-71
2021/10/26 15:54:09;;;;;;;7.60;2.57;;;13.10;99.90;;;;;;5070081;28;20184;-71
2021/10/26 15:56:35;;;;;;;4.43;3.00;;;13.00;99.90;;;;;;5072493;28;20593;-72
2021/10/26 15:59:00;;;;;;;9.13;2.57;;;13.00;99.90;;;;;;5070383;28;20208;-71
2021/10/26 16:01:26;;;;;;;5.10;2.87;;;12.90;99.90;;;;;;5065686;28;20296;-72
2021/10/26 16:03:51;;;;;;;6.83;3.17;;;12.90;99.90;;;;;;5070137;28;20176;-71
2021/10/26 16:06:18;;;;;;;3.80;3.47;;;12.90;99.90;;;;;;5072301;28;20182;-71
2021/10/26 16:08:44;;;;;;;4.53;2.87;;;12.80;99.90;;;;;;5072043;28;20180;-71
2021/10/26 16:11:13;;;;;;;6.50;2.43;;;12.70;99.90;;;;;;5067726;28;20466;-72
2021/10/26 16:13:41;;;;;;;4.43;2.90;;;12.60;99.90;;;;;;5071831;28;20654;-72
2021/10/26 16:16:10;;;;;;;4.47;2.70;;;12.60;99.90;;;;;;5065408;28;20434;-71
2021/10/26 16:18:37;;;;;;;5.57;2.70;;;12.50;99.90;;;;;;5071964;28;20453;-71
2021/10/26 16:21:05;;;;;;;4.93;3.00;;;12.40;99.90;;;;;;5067152;28;20541;-71
2021/10/26 16:23:34;;;;;;;3.70;2.30;;;12.30;99.90;;;;;;5071747;28;20410;-72
2021/10/26 16:26:05;;;;;;;5.03;3.27;;;12.10;99.90;;;;;;5070041;28;20443;-72
2021/10/26 16:28:31;;;;;;;5.63;3.70;;;12.10;99.90;;;;;;5072022;28;20411;-72
2021/10/26 16:31:03;;;;;;;5.80;2.90;;;11.90;99.90;;;;;;5067602;28;21042;-71
2021/10/26 16:33:29;;;;;;;9.23;3.30;;;11.80;99.90;;;;;;5070461;28;20430;-71
2021/10/26 16:35:55;;;;;;;5.90;3.07;;;11.70;99.90;;;;;;5069764;28;20438;-73
2021/10/26 16:38:22;;;;;;;4.60;2.97;;;11.60;99.90;;;;;;5071800;28;20263;-74
2021/10/26 16:40:48;;;;;;;3.17;2.80;;;11.50;99.90;;;;;;5069437;28;20427;-72
2021/10/26 16:46:03;;;;;;;7.63;2.83;;;11.30;99.90;;;;;;5061001;28;20554;-73
2021/10/26 16:48:28;;;;;;;3.90;3.20;;;11.20;99.90;;;;;;5071688;28;20407;-74
2021/10/26 16:50:54;;;;;;;5.90;1.80;;;11.10;99.90;;;;;;5070028;28;20437;-74
2021/10/26 16:53:19;;;;;;;3.53;3.23;;;11.00;99.90;;;;;;5068625;28;20800;-73
2021/10/26 16:55:45;;;;;;;5.20;3.07;;;10.90;99.90;;;;;;5070153;28;20180;-73
2021/10/26 16:58:10;;;;;;;4.27;3.10;;;10.80;99.90;;;;;;5069357;28;20188;-73
2021/10/26 17:00:40;;;;;;;6.53;3.60;;;10.70;99.90;;;;;;5069120;28;20207;-73
2021/10/26 17:03:10;;;;;;;4.80;4.37;;;10.60;99.90;;;;;;5069430;28;20548;-73
2021/10/26 17:05:37;;;;;;;3.83;3.10;;;10.50;99.90;;;;;;5071459;28;20559;-73
2021/10/26 17:08:04;;;;;;;5.30;3.90;;;10.40;99.90;;;;;;5069238;28;20446;-74
2021/10/26 17:10:30;;;;;;;4.73;3.80;;;10.40;99.90;;;;;;5071435;28;20465;-73
2021/10/26 17:12:55;;;;;;;8.13;4.70;;;10.40;99.90;;;;;;5067530;28;21010;-73
2021/10/26 17:15:23;;;;;;;5.80;4.73;;;10.30;99.90;;;;;;5078390;28;20307;-73
2021/10/26 17:17:49;;;;;;;8.30;5.57;;;10.30;99.90;;;;;;5069900;28;20175;-73
2021/10/26 17:20:15;;;;;;;13.73;6.33;;;10.30;99.90;;;;;;5071305;28;20401;-74
2021/10/26 17:22:41;;;;;;;7.70;4.63;;;10.20;99.90;;;;;;5068818;28;20831;-73
2021/10/26 17:25:07;;;;;;;6.80;4.40;;;10.20;99.90;;;;;;5069135;28;20688;-73
2021/10/26 17:27:33;;;;;;;7.90;4.47;;;10.20;99.90;;;;;;5070050;28;20187;-73
2021/10/26 17:30:00;;;;;;;5.97;4.40;;;10.20;99.90;;;;;;5085808;28;20927;-73
2021/10/26 17:32:26;;;;;;;5.73;3.80;;;10.20;99.90;;;;;;5068584;28;20477;-74
2021/10/26 17:34:51;;;;;;;7.03;4.50;;;10.10;99.90;;;;;;5070644;28;21111;-73
2021/10/26 17:37:17;;;;;;;10.93;4.57;;;10.10;99.90;;;;;;5075328;28;20614;-74
2021/10/26 17:39:46;;;;;;;9.00;6.40;;;10.10;99.90;;;;;;5073048;28;20180;-73
2021/10/26 17:42:12;;;;;;;6.33;5.70;;;10.10;99.90;;;;;;5074829;28;20192;-73
2021/10/26 17:44:38;;;;;;;8.37;5.90;;;10.10;99.90;;;;;;5068923;28;20795;-73
2021/10/26 17:47:04;;;;;;;10.00;6.37;;;10.00;99.90;;;;;;5070432;28;20183;-73
2021/10/26 17:49:30;;;;;;;9.67;6.10;;;9.90;99.90;;;;;;5072688;28;20439;-74
2021/10/26 17:51:55;;;;;;;8.63;6.53;;;9.90;99.90;;;;;;5074565;28;20262;-74
2021/10/26 17:54:21;;;;;;;8.30;6.80;;;9.80;99.90;;;;;;5072671;28;20578;-73